Time;durP1;ratioP1;P1;durP2;ratioP2;P2;SDS_P1;SDS_P2;PMS_P1;PMS_P2;Temp;Humidity;BMP_temperature;BMP_pressure;BME280_temperature;BME280_humidity;BME280_pressure;Samples;Min_cycle;Max_cycle;Signal;HPM_P1;HPM_P2
2024/01/19 06:01:43;;;;;;;55.50;21.60;;;;;;;;;;5486452;23;20553;-76
2024/01/19 06:04:09;;;;;;;49.33;22.10;;;;;;;;;;4938246;29;20473;-76
2024/01/19 06:06:35;;;;;;;59.23;25.03;;;;;;;;;;4940180;29;20932;-76
2024/01/19 06:09:01;;;;;;;65.83;23.60;;;;;;;;;;4935510;29;20947;-76
2024/01/19 06:11:27;;;;;;;68.53;26.20;;;;;;;;;;4936964;29;20959;-76
2024/01/19 06:13:53;;;;;;;55.43;21.50;;;;;;;;;;4941724;29;20782;-76
2024/01/19 06:16:19;;;;;;;56.20;24.70;;;;;;;;;;4950598;29;20430;-76
2024/01/19 06:18:45;;;;;;;69.60;27.20;;;;;;;;;;4936169;29;20444;-76
2024/01/19 06:21:11;;;;;;;72.70;27.63;;;;;;;;;;4941192;29;20665;-75
2024/01/19 06:23:38;;;;;;;60.90;24.70;;;;;;;;;;4934501;29;20445;-76
2024/01/19 06:26:10;;;;;;;64.10;25.27;;;;;;;;;;4938171;29;20484;-76
2024/01/19 06:28:36;;;;;;;63.13;24.40;;;;;;;;;;4942034;29;20444;-76
2024/01/19 06:31:03;;;;;;;72.80;26.17;;;;;;;;;;4939555;29;20994;-75
2024/01/19 06:33:30;;;;;;;65.87;25.50;;;;;;;;;;4941462;29;20611;-75
2024/01/19 06:35:56;;;;;;;64.40;25.47;;;;;;;;;;4943698;28;20799;-75
2024/01/19 06:38:23;;;;;;;64.77;27.40;;;;;;;;;;4941914;29;20444;-75
2024/01/19 06:40:49;;;;;;;70.17;26.87;;;;;;;;;;4937487;28;20460;-75
2024/01/19 06:43:15;;;;;;;76.27;26.77;;;;;;;;;;4937077;29;20448;-75
2024/01/19 06:45:41;;;;;;;74.00;28.70;;;;;;;;;;4936357;29;20495;-75
2024/01/19 06:48:07;;;;;;;59.00;25.97;;;;;;;;;;4938376;28;23038;-75
2024/01/19 06:50:33;;;;;;;62.30;23.10;;;;;;;;;;4936194;28;20484;-75
2024/01/19 06:53:00;;;;;;;69.93;24.97;;;;;;;;;;4936778;29;20738;-75
2024/01/19 06:55:27;;;;;;;60.47;24.00;;;;;;;;;;4936741;29;20421;-75
2024/01/19 06:57:53;;;;;;;66.03;23.63;;;;;;;;;;4942369;29;20425;-75
2024/01/19 07:00:19;;;;;;;60.63;22.93;;;;;;;;;;4944811;29;20421;-75
2024/01/19 07:02:45;;;;;;;63.77;23.97;;;;;;;;;;4942669;29;20436;-75
2024/01/19 07:05:11;;;;;;;51.60;24.30;;;;;;;;;;4942351;29;20989;-75
2024/01/19 07:07:38;;;;;;;63.20;24.17;;;;;;;;;;4943620;29;20533;-74
2024/01/19 07:10:04;;;;;;;64.50;24.40;;;;;;;;;;4940947;29;20417;-74
2024/01/19 07:12:30;;;;;;;66.30;28.90;;;;;;;;;;4940823;29;20437;-75
2024/01/19 07:14:57;;;;;;;59.73;22.07;;;;;;;;;;4945640;29;20416;-75
2024/01/19 07:17:23;;;;;;;55.47;24.13;;;;;;;;;;4943439;29;20417;-74
2024/01/19 07:19:49;;;;;;;59.73;22.63;;;;;;;;;;4954994;29;20856;-70
2024/01/19 07:22:15;;;;;;;53.20;21.40;;;;;;;;;;4956052;29;20446;-71
2024/01/19 07:24:41;;;;;;;57.07;21.93;;;;;;;;;;4955299;29;21170;-71
2024/01/19 07:27:07;;;;;;;60.93;21.87;;;;;;;;;;4955904;29;20413;-75
2024/01/19 07:29:33;;;;;;;57.00;22.60;;;;;;;;;;4957591;29;20809;-69
2024/01/19 07:31:59;;;;;;;61.00;23.13;;;;;;;;;;4954960;29;20480;-69
2024/01/19 07:34:25;;;;;;;57.17;22.83;;;;;;;;;;4936956;29;20417;-69
2024/01/19 07:36:52;;;;;;;51.00;20.43;;;;;;;;;;4955434;29;20833;-70
2024/01/19 07:39:23;;;;;;;56.43;22.87;;;;;;;;;;4955423;29;20508;-71
2024/01/19 07:41:51;;;;;;;64.90;26.20;;;;;;;;;;4953872;28;20819;-71
2024/01/19 07:44:17;;;;;;;55.93;21.20;;;;;;;;;;4947023;28;20580;-71
2024/01/19 07:46:43;;;;;;;68.70;21.47;;;;;;;;;;4959102;29;20409;-75
2024/01/19 07:49:09;;;;;;;48.10;22.10;;;;;;;;;;4951367;29;20422;-74
2024/01/19 07:51:35;;;;;;;53.97;21.50;;;;;;;;;;4944851;29;20461;-75
2024/01/19 07:54:01;;;;;;;52.93;21.20;;;;;;;;;;4951543;29;20726;-75
2024/01/19 07:56:27;;;;;;;55.07;22.97;;;;;;;;;;4965220;29;20438;-75
2024/01/19 07:58:53;;;;;;;55.00;22.20;;;;;;;;;;4965680;29;20429;-75
2024/01/19 08:01:19;;;;;;;54.93;24.70;;;;;;;;;;4953322;29;20483;-74
2024/01/19 08:03:45;;;;;;;55.97;21.53;;;;;;;;;;4956862;29;20780;-75
2024/01/19 08:06:11;;;;;;;56.37;20.60;;;;;;;;;;4964581;29;20427;-75
2024/01/19 08:08:37;;;;;;;57.23;20.73;;;;;;;;;;4962604;29;20428;-75
2024/01/19 08:11:03;;;;;;;59.63;21.77;;;;;;;;;;4951727;29;20495;-76
2024/01/19 08:13:29;;;;;;;54.40;22.63;;;;;;;;;;4954319;28;20793;-76
2024/01/19 08:15:55;;;;;;;56.37;21.90;;;;;;;;;;4952083;29;20433;-75
2024/01/19 08:18:21;;;;;;;42.60;19.77;;;;;;;;;;4960546;29;20522;-75
2024/01/19 08:20:47;;;;;;;51.10;21.10;;;;;;;;;;4953608;29;20467;-73
2024/01/19 08:23:13;;;;;;;46.10;19.13;;;;;;;;;;4954684;29;20451;-73
2024/01/19 08:25:39;;;;;;;53.23;19.77;;;;;;;;;;4953707;28;20471;-73
2024/01/19 08:28:05;;;;;;;45.53;21.40;;;;;;;;;;4954189;29;20438;-73
2024/01/19 08:30:31;;;;;;;45.97;20.30;;;;;;;;;;4955337;28;20446;-73
2024/01/19 08:33:01;;;;;;;43.90;18.47;;;;;;;;;;4956870;28;20504;-73
2024/01/19 08:35:26;;;;;;;59.97;21.30;;;;;;;;;;4955266;28;20469;-73
2024/01/19 08:37:52;;;;;;;46.27;19.07;;;;;;;;;;4957733;29;20429;-74
2024/01/19 08:40:19;;;;;;;42.60;17.57;;;;;;;;;;4936957;29;20499;-74
2024/01/19 08:42:45;;;;;;;53.30;20.80;;;;;;;;;;4942373;29;20424;-75
2024/01/19 08:45:11;;;;;;;52.87;20.07;;;;;;;;;;4946000;29;20464;-75
2024/01/19 08:47:37;;;;;;;48.77;20.50;;;;;;;;;;4947863;29;20660;-73
2024/01/19 08:50:03;;;;;;;50.77;21.90;;;;;;;;;;4947153;29;20754;-73
2024/01/19 08:52:29;;;;;;;54.27;21.50;;;;;;;;;;4952546;28;20440;-74
2024/01/19 08:54:55;;;;;;;61.83;23.27;;;;;;;;;;4953603;29;20514;-73
2024/01/19 08:57:21;;;;;;;50.67;21.60;;;;;;;;;;4952213;29;20518;-73
2024/01/19 08:59:47;;;;;;;54.73;20.80;;;;;;;;;;4954518;29;20908;-74
2024/01/19 09:02:13;;;;;;;48.87;21.50;;;;;;;;;;4952886;28;20843;-73
2024/01/19 09:04:39;;;;;;;54.90;18.57;;;;;;;;;;4953496;28;21000;-73
2024/01/19 09:07:05;;;;;;;37.60;16.80;;;;;;;;;;4957047;29;20885;-74
2024/01/19 09:09:31;;;;;;;40.57;16.43;;;;;;;;;;4956024;29;20416;-73
2024/01/19 09:11:57;;;;;;;32.47;14.73;;;;;;;;;;4957271;28;20439;-73
2024/01/19 09:14:26;;;;;;;38.43;16.50;;;;;;;;;;4955551;29;20511;-74
2024/01/19 09:16:52;;;;;;;37.10;18.13;;;;;;;;;;4957193;28;20412;-72
2024/01/19 09:19:18;;;;;;;56.90;18.13;;;;;;;;;;4957211;29;20423;-74
2024/01/19 09:21:44;;;;;;;44.20;18.27;;;;;;;;;;4955365;29;20501;-73
2024/01/19 09:24:11;;;;;;;52.57;18.60;;;;;;;;;;4954806;28;20469;-73
2024/01/19 09:26:37;;;;;;;48.73;20.50;;;;;;;;;;4954652;28;20495;-76
2024/01/19 09:29:03;;;;;;;49.50;18.83;;;;;;;;;;4948650;29;20416;-76
2024/01/19 09:31:29;;;;;;;41.67;18.50;;;;;;;;;;4943083;29;20441;-76
2024/01/19 09:33:54;;;;;;;46.97;17.73;;;;;;;;;;4936901;29;20451;-77
2024/01/19 09:36:20;;;;;;;44.80;18.77;;;;;;;;;;4936934;29;20444;-79
2024/01/19 09:38:47;;;;;;;48.67;20.80;;;;;;;;;;4940881;29;20453;-78
2024/01/19 09:41:28;;;;;;;43.33;18.97;;;;;;;;;;4948645;29;20843;-79
2024/01/19 09:43:57;;;;;;;44.60;18.90;;;;;;;;;;4941343;29;20412;-76
2024/01/19 09:46:30;;;;;;;51.40;19.60;;;;;;;;;;4939218;29;20416;-76
2024/01/19 09:49:11;;;;;;;42.47;20.50;;;;;;;;;;4937819;29;20441;-77
2024/01/19 09:51:40;;;;;;;49.47;20.43;;;;;;;;;;4937538;29;20512;-76
2024/01/19 09:54:09;;;;;;;39.90;17.97;;;;;;;;;;4937837;29;20492;-76
2024/01/19 09:56:35;;;;;;;41.10;19.80;;;;;;;;;;4937531;29;20401;-76
2024/01/19 09:59:01;;;;;;;44.10;19.77;;;;;;;;;;4936346;29;20426;-76
2024/01/19 10:01:27;;;;;;;46.67;20.70;;;;;;;;;;4937340;29;20457;-77
2024/01/19 10:03:57;;;;;;;48.70;20.43;;;;;;;;;;4936639;29;20410;-76
2024/01/19 10:06:23;;;;;;;51.33;21.10;;;;;;;;;;4937425;29;20424;-77
2024/01/19 10:08:50;;;;;;;39.77;19.23;;;;;;;;;;4937273;29;20417;-76
2024/01/19 10:11:16;;;;;;;53.83;21.60;;;;;;;;;;4937843;29;20429;-77
2024/01/19 10:13:42;;;;;;;48.70;19.97;;;;;;;;;;4937307;29;20431;-77
2024/01/19 10:16:08;;;;;;;53.60;20.37;;;;;;;;;;4935173;29;20421;-76
2024/01/19 10:18:34;;;;;;;48.23;21.57;;;;;;;;;;4937374;29;20956;-76
2024/01/19 10:21:00;;;;;;;43.17;19.43;;;;;;;;;;4937311;29;20441;-76
2024/01/19 10:23:26;;;;;;;62.33;22.43;;;;;;;;;;4937360;29;20433;-76
2024/01/19 10:25:52;;;;;;;41.33;20.30;;;;;;;;;;4937318;29;20476;-78
2024/01/19 10:28:36;;;;;;;58.00;21.80;;;;;;;;;;4937299;29;20410;-76
2024/01/19 10:31:15;;;;;;;47.93;19.90;;;;;;;;;;4937962;29;20437;-76
2024/01/19 10:33:48;;;;;;;49.83;20.97;;;;;;;;;;4937274;29;20409;-76
2024/01/19 10:36:14;;;;;;;51.07;23.07;;;;;;;;;;4936974;29;20414;-76
2024/01/19 10:38:40;;;;;;;50.43;19.60;;;;;;;;;;4937367;29;20409;-76
2024/01/19 10:41:13;;;;;;;50.30;19.93;;;;;;;;;;4937198;29;20430;-76
2024/01/19 10:43:39;;;;;;;58.33;23.03;;;;;;;;;;4938147;29;20751;-76
2024/01/19 10:46:23;;;;;;;45.47;20.43;;;;;;;;;;4935136;29;20476;-76
2024/01/19 10:48:50;;;;;;;52.97;20.60;;;;;;;;;;4935563;29;20421;-76
2024/01/19 10:51:20;;;;;;;46.53;19.10;;;;;;;;;;4936535;29;20807;-75
2024/01/19 10:53:48;;;;;;;45.73;19.53;;;;;;;;;;4936611;29;20893;-76
2024/01/19 10:56:21;;;;;;;49.57;20.50;;;;;;;;;;4936491;29;20418;-76
2024/01/19 10:58:47;;;;;;;43.43;20.00;;;;;;;;;;4936780;29;20417;-75
2024/01/19 11:01:14;;;;;;;40.90;19.40;;;;;;;;;;4936385;29;20456;-76
2024/01/19 11:03:42;;;;;;;50.43;21.47;;;;;;;;;;4934923;29;20429;-76
2024/01/19 11:06:08;;;;;;;47.20;20.20;;;;;;;;;;4936452;29;20508;-76
2024/01/19 11:08:34;;;;;;;51.00;21.70;;;;;;;;;;4936606;29;20441;-76
2024/01/19 11:11:01;;;;;;;40.07;18.23;;;;;;;;;;4936493;29;20925;-76
2024/01/19 11:13:27;;;;;;;46.77;19.30;;;;;;;;;;4936558;29;20477;-76
2024/01/19 11:15:55;;;;;;;41.67;18.20;;;;;;;;;;4936224;29;20417;-75
2024/01/19 11:18:21;;;;;;;34.13;15.87;;;;;;;;;;4936605;29;20426;-76
2024/01/19 11:20:47;;;;;;;33.90;15.43;;;;;;;;;;4936589;29;20448;-75
2024/01/19 11:23:14;;;;;;;31.77;13.90;;;;;;;;;;4936402;29;20409;-76
2024/01/19 11:25:59;;;;;;;32.73;14.03;;;;;;;;;;4936309;29;20601;-75
2024/01/19 11:28:41;;;;;;;39.23;17.23;;;;;;;;;;4936244;29;20402;-76
2024/01/19 11:31:15;;;;;;;34.87;14.90;;;;;;;;;;4936598;29;20429;-77
2024/01/19 11:33:41;;;;;;;30.83;15.97;;;;;;;;;;4937226;29;20417;-76
2024/01/19 11:36:07;;;;;;;34.50;16.30;;;;;;;;;;4937259;29;20928;-78
2024/01/19 11:38:39;;;;;;;41.43;19.93;;;;;;;;;;4938336;29;20417;-76
2024/01/19 11:41:05;;;;;;;38.43;19.43;;;;;;;;;;4937130;29;20461;-76
2024/01/19 11:43:37;;;;;;;39.97;18.40;;;;;;;;;;4937865;29;20416;-76
2024/01/19 11:46:04;;;;;;;47.00;17.20;;;;;;;;;;4941122;29;20496;-77
2024/01/19 11:48:43;;;;;;;43.93;17.80;;;;;;;;;;4935644;29;20469;-77
2024/01/19 11:51:09;;;;;;;39.53;19.40;;;;;;;;;;4934346;29;20433;-76
2024/01/19 11:53:58;;;;;;;40.27;18.90;;;;;;;;;;4937308;29;20420;-77
2024/01/19 11:56:25;;;;;;;43.20;19.50;;;;;;;;;;4948748;29;20417;-76
2024/01/19 11:58:51;;;;;;;41.97;16.83;;;;;;;;;;4945413;29;20417;-76
2024/01/19 12:01:17;;;;;;;35.77;16.20;;;;;;;;;;4950118;29;20453;-76
2024/01/19 12:03:43;;;;;;;31.93;16.17;;;;;;;;;;4945932;29;20409;-77
2024/01/19 12:06:10;;;;;;;34.70;15.43;;;;;;;;;;4940726;29;20481;-77
2024/01/19 12:08:38;;;;;;;36.73;14.40;;;;;;;;;;4937001;29;20440;-76
2024/01/19 12:11:11;;;;;;;32.60;14.40;;;;;;;;;;4935756;29;20496;-77
2024/01/19 12:13:41;;;;;;;34.83;15.57;;;;;;;;;;4936476;29;20413;-78
2024/01/19 12:16:07;;;;;;;30.40;14.60;;;;;;;;;;4941696;29;20410;-78
2024/01/19 12:18:34;;;;;;;39.23;16.40;;;;;;;;;;4935547;29;20426;-78
2024/01/19 12:21:01;;;;;;;42.23;17.40;;;;;;;;;;4936085;29;20844;-78
2024/01/19 12:23:32;;;;;;;39.33;18.30;;;;;;;;;;4935562;29;20505;-78
2024/01/19 12:25:59;;;;;;;41.83;17.93;;;;;;;;;;4935297;29;20469;-77
2024/01/19 12:28:25;;;;;;;45.87;18.80;;;;;;;;;;4936714;29;20909;-77
2024/01/19 12:30:52;;;;;;;41.33;18.17;;;;;;;;;;4934805;29;20469;-77
2024/01/19 12:33:25;;;;;;;39.67;18.20;;;;;;;;;;4936292;29;20422;-77
2024/01/19 12:36:01;;;;;;;45.00;16.73;;;;;;;;;;4935574;29;20421;-78
2024/01/19 12:38:27;;;;;;;36.93;16.93;;;;;;;;;;4936012;29;20417;-77
2024/01/19 12:40:52;;;;;;;37.43;17.13;;;;;;;;;;4933600;29;20445;-78
2024/01/19 12:43:19;;;;;;;50.27;16.90;;;;;;;;;;4935756;29;20508;-77
2024/01/19 12:45:45;;;;;;;45.67;16.50;;;;;;;;;;4934280;29;20464;-77
2024/01/19 12:48:11;;;;;;;42.73;17.90;;;;;;;;;;4935268;29;20424;-78
2024/01/19 12:50:37;;;;;;;46.70;18.73;;;;;;;;;;4936274;29;20480;-78
2024/01/19 12:53:03;;;;;;;42.13;18.20;;;;;;;;;;4934777;29;20505;-78
2024/01/19 12:55:29;;;;;;;41.50;17.53;;;;;;;;;;4936576;29;20960;-78
2024/01/19 12:57:56;;;;;;;37.70;16.70;;;;;;;;;;4936417;29;20928;-78
2024/01/19 13:00:25;;;;;;;34.20;16.47;;;;;;;;;;4936520;29;20839;-78
2024/01/19 13:02:55;;;;;;;46.77;21.47;;;;;;;;;;4935493;29;20444;-78
2024/01/19 13:05:21;;;;;;;41.10;16.50;;;;;;;;;;4937484;29;20458;-78
2024/01/19 13:07:47;;;;;;;43.93;19.10;;;;;;;;;;4935706;29;20428;-78
2024/01/19 13:10:20;;;;;;;39.73;19.03;;;;;;;;;;4935380;29;20779;-78
2024/01/19 13:12:47;;;;;;;43.63;16.87;;;;;;;;;;4936269;29;20796;-78
2024/01/19 13:15:16;;;;;;;34.70;17.00;;;;;;;;;;4936341;29;20418;-78
2024/01/19 13:17:43;;;;;;;50.40;15.90;;;;;;;;;;4934913;29;20429;-78
2024/01/19 13:20:11;;;;;;;43.37;17.70;;;;;;;;;;4936763;29;20965;-78
2024/01/19 13:22:38;;;;;;;33.00;15.43;;;;;;;;;;4948626;29;20410;-77
2024/01/19 13:25:04;;;;;;;35.97;16.77;;;;;;;;;;4949513;29;20461;-78
2024/01/19 13:27:32;;;;;;;35.03;16.13;;;;;;;;;;4946030;29;20424;-78
2024/01/19 13:29:58;;;;;;;35.10;17.10;;;;;;;;;;4944595;29;20417;-78
2024/01/19 13:32:24;;;;;;;39.70;15.50;;;;;;;;;;4943156;29;20433;-78
2024/01/19 13:34:50;;;;;;;28.43;13.90;;;;;;;;;;4943684;29;20432;-78
2024/01/19 13:37:16;;;;;;;35.27;14.77;;;;;;;;;;4941753;29;20426;-78
2024/01/19 13:39:42;;;;;;;36.20;15.87;;;;;;;;;;4937921;29;20528;-77
2024/01/19 13:42:08;;;;;;;40.93;14.30;;;;;;;;;;4936131;29;20478;-78
2024/01/19 13:44:35;;;;;;;34.43;14.10;;;;;;;;;;4936270;29;20537;-77
2024/01/19 13:47:01;;;;;;;36.70;15.93;;;;;;;;;;4936176;29;20469;-78
2024/01/19 13:49:27;;;;;;;34.67;15.03;;;;;;;;;;4941674;29;20425;-77
2024/01/19 13:51:53;;;;;;;30.17;13.50;;;;;;;;;;4947683;29;20465;-77
2024/01/19 13:54:19;;;;;;;34.13;14.23;;;;;;;;;;4949315;29;20413;-77
2024/01/19 13:56:45;;;;;;;33.00;16.80;;;;;;;;;;4939792;29;20448;-78
2024/01/19 13:59:11;;;;;;;39.60;15.47;;;;;;;;;;4939072;29;20417;-77
2024/01/19 14:01:37;;;;;;;34.30;15.67;;;;;;;;;;4939680;29;20457;-78
2024/01/19 14:04:05;;;;;;;36.07;16.30;;;;;;;;;;4939516;29;20421;-78
2024/01/19 14:06:31;;;;;;;34.00;14.70;;;;;;;;;;4937442;29;20445;-78
2024/01/19 14:08:59;;;;;;;36.77;15.20;;;;;;;;;;4938911;29;20495;-78
2024/01/19 14:11:25;;;;;;;46.20;16.87;;;;;;;;;;4939989;29;20789;-77
2024/01/19 14:13:51;;;;;;;42.70;15.40;;;;;;;;;;4941982;29;20424;-78
2024/01/19 14:16:17;;;;;;;37.40;16.03;;;;;;;;;;4942767;29;20416;-78
2024/01/19 14:18:43;;;;;;;43.30;14.20;;;;;;;;;;4942037;29;20413;-77
2024/01/19 14:21:09;;;;;;;31.93;13.30;;;;;;;;;;4940852;29;20803;-78
2024/01/19 14:23:35;;;;;;;30.87;13.50;;;;;;;;;;4941172;29;20421;-78
2024/01/19 14:26:01;;;;;;;37.00;14.43;;;;;;;;;;4940118;29;20485;-77
2024/01/19 14:28:27;;;;;;;30.20;12.60;;;;;;;;;;4939082;29;20417;-77
2024/01/19 14:30:53;;;;;;;32.47;13.13;;;;;;;;;;4938961;29;20805;-78
2024/01/19 14:33:19;;;;;;;39.30;15.67;;;;;;;;;;4937532;29;20414;-72
2024/01/19 14:35:47;;;;;;;28.90;14.60;;;;;;;;;;4936245;29;20894;-73
2024/01/19 14:38:13;;;;;;;38.50;15.27;;;;;;;;;;4947707;28;20434;-74
2024/01/19 14:40:39;;;;;;;44.33;15.47;;;;;;;;;;4962809;28;20424;-72
2024/01/19 14:43:07;;;;;;;39.53;16.40;;;;;;;;;;4963896;28;20511;-73
2024/01/19 14:45:33;;;;;;;36.73;14.03;;;;;;;;;;4947335;28;20483;-77
2024/01/19 14:47:59;;;;;;;29.13;12.70;;;;;;;;;;4953672;29;20420;-78
2024/01/19 14:50:25;;;;;;;32.60;14.20;;;;;;;;;;4951173;29;20497;-77
2024/01/19 14:52:53;;;;;;;35.13;14.23;;;;;;;;;;4953712;29;20480;-77
2024/01/19 14:55:19;;;;;;;32.70;13.67;;;;;;;;;;4951564;28;20426;-73
2024/01/19 14:57:45;;;;;;;32.60;13.37;;;;;;;;;;4945357;29;20511;-72
2024/01/19 15:00:11;;;;;;;30.33;13.40;;;;;;;;;;4948612;28;20413;-73
2024/01/19 15:02:38;;;;;;;32.27;14.37;;;;;;;;;;4963972;28;21034;-71
2024/01/19 15:05:04;;;;;;;35.10;14.20;;;;;;;;;;4964019;28;20501;-72
2024/01/19 15:07:34;;;;;;;31.90;15.80;;;;;;;;;;4965320;28;20827;-74
2024/01/19 15:10:02;;;;;;;39.77;14.53;;;;;;;;;;4967153;28;20576;-76
2024/01/19 15:12:28;;;;;;;42.27;15.87;;;;;;;;;;4966193;28;20781;-80
2024/01/19 15:14:54;;;;;;;43.33;15.00;;;;;;;;;;4974620;28;20419;-77
2024/01/19 15:17:20;;;;;;;37.70;15.37;;;;;;;;;;4955110;28;20750;-77
2024/01/19 15:19:52;;;;;;;36.97;16.03;;;;;;;;;;4955123;29;20413;-77
2024/01/19 15:22:18;;;;;;;38.37;16.43;;;;;;;;;;4954744;28;20448;-77
2024/01/19 15:24:44;;;;;;;42.50;13.80;;;;;;;;;;4955106;29;20829;-77
2024/01/19 15:27:09;;;;;;;36.93;15.70;;;;;;;;;;4960968;29;20480;-77
2024/01/19 15:29:36;;;;;;;35.30;15.60;;;;;;;;;;4959827;29;20714;-77
2024/01/19 15:32:02;;;;;;;39.83;16.53;;;;;;;;;;4954802;29;20487;-76
2024/01/19 15:34:28;;;;;;;42.97;16.70;;;;;;;;;;4955557;29;20416;-77
2024/01/19 15:36:54;;;;;;;43.80;18.00;;;;;;;;;;4952620;29;20427;-77
2024/01/19 15:39:20;;;;;;;35.17;16.10;;;;;;;;;;4955658;29;20466;-78
2024/01/19 15:41:46;;;;;;;40.00;14.60;;;;;;;;;;4954836;28;20864;-78
2024/01/19 15:44:12;;;;;;;34.20;15.83;;;;;;;;;;4952233;29;20428;-76
2024/01/19 15:46:38;;;;;;;45.70;16.00;;;;;;;;;;4953698;29;20423;-76
2024/01/19 15:49:03;;;;;;;40.93;16.20;;;;;;;;;;4954324;29;20899;-76
2024/01/19 15:51:29;;;;;;;44.80;16.40;;;;;;;;;;4954219;29;20976;-77
2024/01/19 15:53:56;;;;;;;33.13;15.27;;;;;;;;;;4953103;29;20924;-76
2024/01/19 15:56:26;;;;;;;34.03;14.77;;;;;;;;;;4953622;29;20478;-77
2024/01/19 15:58:52;;;;;;;40.67;14.83;;;;;;;;;;4954422;29;20792;-77
2024/01/19 16:01:19;;;;;;;38.00;15.97;;;;;;;;;;4952718;29;20562;-77
2024/01/19 16:03:45;;;;;;;44.67;16.07;;;;;;;;;;4953856;29;20512;-77
2024/01/19 16:06:15;;;;;;;36.33;17.10;;;;;;;;;;4954011;29;20491;-76
2024/01/19 16:08:41;;;;;;;33.43;14.60;;;;;;;;;;4956971;28;20424;-73
2024/01/19 16:11:08;;;;;;;40.90;15.53;;;;;;;;;;4946254;29;20920;-73
2024/01/19 16:13:34;;;;;;;45.37;15.80;;;;;;;;;;4938080;28;20413;-75
2024/01/19 16:16:11;;;;;;;39.90;14.07;;;;;;;;;;4958029;28;20486;-74
2024/01/19 16:18:40;;;;;;;42.40;15.27;;;;;;;;;;4934687;29;20422;-77
2024/01/19 16:21:16;;;;;;;39.53;15.53;;;;;;;;;;4936262;29;20445;-78
2024/01/19 16:23:41;;;;;;;39.70;15.37;;;;;;;;;;4944858;28;20832;-71
2024/01/19 16:26:07;;;;;;;44.33;17.10;;;;;;;;;;4954775;28;20599;-77
2024/01/19 16:28:33;;;;;;;45.33;17.80;;;;;;;;;;4954578;29;20408;-78
2024/01/19 16:30:59;;;;;;;36.83;15.17;;;;;;;;;;4944868;28;20496;-75
2024/01/19 16:33:25;;;;;;;41.37;17.83;;;;;;;;;;4949035;29;20436;-75
2024/01/19 16:35:54;;;;;;;47.10;16.20;;;;;;;;;;4937133;29;20493;-77
2024/01/19 16:38:20;;;;;;;44.07;17.23;;;;;;;;;;4940447;28;20545;-77
2024/01/19 16:40:46;;;;;;;39.73;16.00;;;;;;;;;;4948180;28;20531;-76
2024/01/19 16:43:12;;;;;;;39.77;15.73;;;;;;;;;;4959344;28;20421;-79
2024/01/19 16:45:38;;;;;;;47.93;17.47;;;;;;;;;;4950733;29;20476;-79
2024/01/19 16:48:05;;;;;;;43.70;16.00;;;;;;;;;;4949322;28;20841;-77
2024/01/19 16:50:31;;;;;;;42.97;16.87;;;;;;;;;;4962349;28;20434;-75
2024/01/19 16:52:59;;;;;;;37.33;14.97;;;;;;;;;;4954460;28;20975;-76
2024/01/19 16:55:25;;;;;;;33.13;14.63;;;;;;;;;;4952927;28;20491;-79
2024/01/19 16:57:51;;;;;;;44.00;18.30;;;;;;;;;;4953237;29;20429;-77
2024/01/19 17:00:18;;;;;;;40.07;14.97;;;;;;;;;;4954525;28;20571;-78
2024/01/19 17:02:44;;;;;;;44.77;15.87;;;;;;;;;;4955451;29;20550;-78
2024/01/19 17:05:10;;;;;;;40.33;14.63;;;;;;;;;;4954817;29;20552;-76
2024/01/19 17:07:37;;;;;;;37.63;15.57;;;;;;;;;;4954813;29;20430;-78
2024/01/19 17:10:03;;;;;;;36.57;14.87;;;;;;;;;;4941440;29;20421;-78
2024/01/19 17:12:29;;;;;;;30.33;14.27;;;;;;;;;;4936625;29;20446;-78
2024/01/19 17:14:56;;;;;;;38.77;16.83;;;;;;;;;;4950666;29;20471;-77
2024/01/19 17:17:22;;;;;;;40.60;15.40;;;;;;;;;;4954566;29;20424;-79
2024/01/19 17:19:48;;;;;;;39.53;14.90;;;;;;;;;;4954971;29;20429;-79
2024/01/19 17:22:14;;;;;;;37.20;15.83;;;;;;;;;;4954384;29;20959;-79
2024/01/19 17:24:40;;;;;;;43.27;15.80;;;;;;;;;;4957023;29;20472;-79
2024/01/19 17:27:06;;;;;;;35.53;15.00;;;;;;;;;;4962096;28;20419;-79
2024/01/19 17:29:32;;;;;;;53.10;16.53;;;;;;;;;;4959622;28;20426;-74
2024/01/19 17:31:58;;;;;;;39.30;17.00;;;;;;;;;;4958682;28;20433;-74
2024/01/19 17:34:24;;;;;;;42.30;17.00;;;;;;;;;;4957406;29;20419;-75
2024/01/19 17:36:50;;;;;;;40.00;14.60;;;;;;;;;;4966354;28;20424;-74
2024/01/19 17:39:19;;;;;;;35.67;15.40;;;;;;;;;;4959044;28;20481;-73
2024/01/19 17:41:45;;;;;;;42.10;15.80;;;;;;;;;;4955350;29;20441;-74
2024/01/19 17:44:11;;;;;;;38.83;15.57;;;;;;;;;;4973252;28;20922;-78
2024/01/19 17:46:37;;;;;;;30.53;13.90;;;;;;;;;;4958456;28;20872;-79
2024/01/19 17:49:03;;;;;;;46.93;16.23;;;;;;;;;;4956456;28;20479;-79
2024/01/19 17:51:29;;;;;;;34.53;13.23;;;;;;;;;;4960536;28;20472;-80
2024/01/19 17:53:54;;;;;;;26.87;12.30;;;;;;;;;;4961482;28;20840;-80
2024/01/19 17:56:21;;;;;;;30.60;13.10;;;;;;;;;;4962725;28;20447;-73
2024/01/19 17:58:47;;;;;;;39.67;15.30;;;;;;;;;;4960357;28;20516;-78
2024/01/19 18:01:13;;;;;;;38.97;14.97;;;;;;;;;;4961303;29;20537;-78
2024/01/19 18:03:39;;;;;;;40.83;14.30;;;;;;;;;;4966820;29;20525;-77
2024/01/19 18:06:06;;;;;;;38.57;12.50;;;;;;;;;;4960545;28;20502;-78
2024/01/19 18:08:32;;;;;;;40.57;15.30;;;;;;;;;;4958637;28;20424;-78
2024/01/19 18:10:59;;;;;;;32.27;13.23;;;;;;;;;;4953409;28;20449;-78
2024/01/19 18:13:25;;;;;;;34.17;12.73;;;;;;;;;;4953833;28;20447;-78
2024/01/19 18:15:51;;;;;;;31.53;13.27;;;;;;;;;;4954645;29;20425;-78
2024/01/19 18:18:17;;;;;;;27.20;12.40;;;;;;;;;;4960515;29;20425;-77
2024/01/19 18:20:43;;;;;;;29.47;11.43;;;;;;;;;;4958512;29;20544;-77
2024/01/19 18:23:09;;;;;;;29.63;11.27;;;;;;;;;;4958128;28;20978;-77
2024/01/19 18:25:35;;;;;;;28.20;11.80;;;;;;;;;;4952897;29;20468;-77
2024/01/19 18:28:01;;;;;;;33.07;11.47;;;;;;;;;;4937388;29;20410;-78
2024/01/19 18:30:27;;;;;;;34.40;12.37;;;;;;;;;;4935496;29;20931;-77
2024/01/19 18:32:53;;;;;;;29.50;10.50;;;;;;;;;;4936575;29;20413;-77
2024/01/19 18:35:19;;;;;;;31.17;11.67;;;;;;;;;;4937303;29;20432;-77
2024/01/19 18:37:45;;;;;;;30.70;11.97;;;;;;;;;;4935600;29;20520;-77
2024/01/19 18:40:11;;;;;;;38.83;13.70;;;;;;;;;;4936995;29;20453;-77
2024/01/19 18:42:38;;;;;;;33.80;12.03;;;;;;;;;;4936454;29;20434;-77
2024/01/19 18:45:05;;;;;;;30.63;12.60;;;;;;;;;;4936184;29;20886;-77
2024/01/19 18:47:31;;;;;;;23.50;11.70;;;;;;;;;;4936370;29;20471;-78
2024/01/19 18:49:57;;;;;;;34.03;11.40;;;;;;;;;;4936227;29;20418;-77
2024/01/19 18:52:24;;;;;;;36.37;14.00;;;;;;;;;;4936152;29;20438;-77
2024/01/19 18:54:50;;;;;;;29.33;11.83;;;;;;;;;;4935129;29;20441;-76
2024/01/19 18:57:16;;;;;;;29.20;11.67;;;;;;;;;;4945868;29;20513;-76
2024/01/19 18:59:42;;;;;;;36.13;13.60;;;;;;;;;;4955535;29;20428;-76
2024/01/19 19:02:09;;;;;;;29.83;11.70;;;;;;;;;;4955072;29;20507;-76
2024/01/19 19:04:35;;;;;;;29.27;11.50;;;;;;;;;;4954787;28;20539;-77
2024/01/19 19:07:01;;;;;;;30.23;12.00;;;;;;;;;;4955029;28;20919;-73
2024/01/19 19:09:27;;;;;;;23.50;11.37;;;;;;;;;;4953678;29;20902;-77
2024/01/19 19:11:55;;;;;;;34.10;13.57;;;;;;;;;;4953672;29;20771;-77
2024/01/19 19:14:23;;;;;;;30.70;12.00;;;;;;;;;;4953722;29;20515;-77
2024/01/19 19:16:49;;;;;;;30.10;11.97;;;;;;;;;;4954964;28;20441;-76
2024/01/19 19:19:16;;;;;;;25.03;10.13;;;;;;;;;;4953599;29;20789;-76
2024/01/19 19:21:42;;;;;;;31.40;12.40;;;;;;;;;;4954900;29;20442;-77
2024/01/19 19:24:08;;;;;;;25.40;10.57;;;;;;;;;;4953215;29;20843;-76
2024/01/19 19:26:34;;;;;;;32.67;11.90;;;;;;;;;;4954405;29;20468;-76
2024/01/19 19:29:00;;;;;;;25.30;10.83;;;;;;;;;;4954692;29;20932;-77
2024/01/19 19:31:26;;;;;;;27.27;11.00;;;;;;;;;;4954603;29;20517;-77
2024/01/19 19:33:52;;;;;;;31.70;11.70;;;;;;;;;;4953757;29;20420;-76
2024/01/19 19:36:18;;;;;;;25.20;11.17;;;;;;;;;;4954630;29;20969;-77
2024/01/19 19:38:45;;;;;;;25.13;9.33;;;;;;;;;;4954819;29;20442;-77
2024/01/19 19:41:12;;;;;;;27.30;11.47;;;;;;;;;;4954592;28;20983;-77
2024/01/19 19:43:39;;;;;;;27.43;12.10;;;;;;;;;;4955003;28;20875;-77
2024/01/19 19:46:05;;;;;;;29.73;11.70;;;;;;;;;;4954281;28;20471;-76
2024/01/19 19:48:31;;;;;;;26.60;12.07;;;;;;;;;;4953875;28;20411;-76
2024/01/19 19:50:58;;;;;;;31.13;14.07;;;;;;;;;;4954403;28;20450;-77
2024/01/19 19:53:24;;;;;;;24.70;10.77;;;;;;;;;;4954027;29;20506;-76
2024/01/19 19:55:50;;;;;;;22.10;11.00;;;;;;;;;;4953732;29;20424;-77
2024/01/19 19:58:16;;;;;;;27.73;12.40;;;;;;;;;;4954107;29;20420;-76
2024/01/19 20:00:42;;;;;;;26.50;12.50;;;;;;;;;;4954130;29;20935;-76
2024/01/19 20:03:08;;;;;;;33.63;12.13;;;;;;;;;;4953070;29;20441;-77
2024/01/19 20:05:34;;;;;;;25.80;11.40;;;;;;;;;;4954287;29;20464;-77
2024/01/19 20:08:00;;;;;;;39.43;13.30;;;;;;;;;;4954249;29;20464;-76
2024/01/19 20:10:26;;;;;;;41.53;13.73;;;;;;;;;;4954533;29;20478;-76
2024/01/19 20:12:53;;;;;;;24.37;11.23;;;;;;;;;;4954777;29;20409;-77
2024/01/19 20:15:19;;;;;;;28.10;10.80;;;;;;;;;;4953885;28;20427;-77